Aviation Digital Data Service (ADDS)

Output produced by METARs form (1827 UTC 24 July 2016)
found at http://www.aviationweather.gov/adds/metars/
 
KAOO 241753Z AUTO VRB04KT 10SM CLR 32/17 A3004 RMK AO2 SLP158 T03220172 10328 20217 58011
KAOO 241653Z AUTO 16007KT 140V220 10SM FEW065 32/17 A3006 RMK AO2 SLP167 T03220172
KAOO 241553Z AUTO VRB06KT 10SM CLR 32/15 A3007 RMK AO2 SLP169 T03170150
KAOO 241453Z AUTO VRB05KT 10SM CLR 29/15 A3007 RMK AO2 SLP169 T02940150 56003
KAOO 241353Z AUTO 00000KT 10SM CLR 27/14 A3007 RMK AO2 SLP170 T02720144
KAOO 241253Z AUTO 00000KT 10SM CLR 24/17 A3008 RMK AO2 SLP173 T02440172
KAOO 241153Z AUTO 32003KT 10SM CLR 22/17 A3008 RMK AO2 SLP173 T02170167 10217 20156 51001
KAOO 241053Z AUTO 17003KT 3SM BR CLR 18/16 A3008 RMK AO2 SLP173 T01780161
KAOO 241049Z AUTO 15004KT 3SM BR CLR 17/16 A3008 RMK AO2
KAOO 241035Z AUTO 00000KT 2 1/2SM BR CLR 17/16 A3008 RMK AO2 T01670156
KAOO 240953Z AUTO 00000KT 6SM BR CLR 17/16 A3007 RMK AO2 SLP172 T01720156
KAOO 240853Z AUTO 17004KT 10SM CLR 18/16 A3005 RMK AO2 SLP162 T01780156 55001
KAOO 240753Z AUTO 00000KT 9SM CLR 17/16 A3004 RMK AO2 SLP162 T01720156
KAOO 240653Z AUTO 00000KT 10SM CLR 18/16 A3004 RMK AO2 SLP161 T01780161
KAOO 240553Z AUTO 20003KT 10SM CLR 20/17 A3005 RMK AO2 SLP162 T02000167 10289 20194 50007
KAOO 240453Z AUTO 00000KT 10SM CLR 21/17 A3005 RMK AO2 SLP164 T02060172 403440194
KAOO 240353Z AUTO 20003KT 10SM CLR 21/17 A3005 RMK AO2 SLP162 T02110167
KAOO 240253Z AUTO 00000KT 10SM CLR 22/19 A3003 RMK AO2 SLP155 T02170189 53018
KAOO 240153Z AUTO 28005KT 10SM CLR 25/20 A3001 RMK AO2 SLP147 T02500200
KAOO 240053Z AUTO 25003KT 10SM CLR 26/20 A2998 RMK AO2 SLP140 T02560200
KAOO 232353Z AUTO 25007KT 10SM CLR 29/21 A2997 RMK AO2 SLP135 60000 T02890206 10344 20289 53002
KAOO 232253Z AUTO 25010KT 10SM CLR 31/20 A2996 RMK AO2 SLP132 T03060200
KAOO 232153Z AUTO 31009KT 10SM SCT065 33/15 A2996 RMK AO2 SLP132 T03280150
KAOO 232053Z AUTO 26011KT 10SM CLR 33/17 A2997 RMK AO2 LTG DSNT SW AND W SLP132 60000 T03330172 58007
KAOO 232013Z AUTO 28012G18KT 10SM FEW049 33/19 A2998 RMK AO2 LTG DSNT W T03280189
KAOO 231953Z AUTO 26010KT 10SM VCTS FEW055 SCT075 BKN110 31/19 A2998 RMK AO2 LTG DSNT W RAB41E51 SLP140 P0000 T03060189
KAOO 231853Z AUTO 28010KT 10SM CLR 34/17 A2998 RMK AO2 LTG DSNT W SLP138 T03440167
KAOO 231753Z AUTO 29008G18KT 240V310 10SM FEW050 SCT065 33/18 A2999 RMK AO2 SLP140 T03330178 10339 20250 58011
KAOO 231653Z AUTO 31014G18KT 10SM SCT046 33/18 A3000 RMK AO2 SLP143 T03280183
KAOO 231553Z AUTO 31009G17KT 10SM FEW039 32/19 A3002 RMK AO2 SLP151 T03170189
KAOO 231453Z AUTO 28007KT 10SM FEW031 31/20 A3002 RMK AO2 SLP152 T03060200 50000
KAOO 231353Z AUTO 32009KT 10SM CLR 29/21 A3002 RMK AO2 SLP153 T02890206
KAOO 231253Z AUTO 29010KT 9SM CLR 27/20 A3002 RMK AO2 SLP152 T02720200
KAOO 231153Z AUTO 29007KT 8SM CLR 25/20 A3002 RMK AO2 SLP152 T02500200 10250 20206 50006
KAOO 231124Z AUTO 31006KT 9SM FEW015 24/20 A3002 RMK AO2 T02390200
KAOO 231053Z AUTO 28004KT 10SM BKN016 23/19 A3002 RMK AO2 SLP154 T02330194
KAOO 230953Z AUTO 26005KT 10SM CLR 22/19 A3001 RMK AO2 SLP149 T02220189
KAOO 230853Z AUTO 26005KT 10SM CLR 23/19 A3000 RMK AO2 SLP145 T02280189 50002
KAOO 230753Z AUTO 17004KT 10SM CLR 21/18 A3000 RMK AO2 SLP147 T02110183
KAOO 230653Z AUTO 20005KT 10SM CLR 22/19 A3000 RMK AO2 SLP146 T02220189